Time;durP1;ratioP1;P1;durP2;ratioP2;P2;SDS_P1;SDS_P2;PMS_P1;PMS_P2;Temp;Humidity;BMP_temperature;BMP_pressure;BME280_temperature;BME280_humidity;BME280_pressure;Samples;Min_cycle;Max_cycle;Signal;HPM_P1;HPM_P2
2021/09/13 00:01:31;;;;;;;6.10;4.25;;;;;;;14.57;100.00;101921.81;4974604;28;20497;-61
2021/09/13 00:03:58;;;;;;;5.88;4.05;;;;;;;14.47;100.00;101918.38;4965538;28;20564;-60
2021/09/13 00:06:25;;;;;;;7.93;4.40;;;;;;;14.40;100.00;101915.47;4976836;28;20332;-61
2021/09/13 00:08:51;;;;;;;5.30;4.13;;;;;;;14.33;100.00;101912.56;4970107;28;20156;-61
2021/09/13 00:11:18;;;;;;;7.78;4.80;;;;;;;14.31;100.00;101914.53;4970125;28;20176;-61
2021/09/13 00:13:44;;;;;;;7.03;4.25;;;;;;;14.35;100.00;101910.63;4975502;28;20140;-61
2021/09/13 00:16:11;;;;;;;5.75;4.10;;;;;;;14.46;100.00;101914.88;4969431;28;20586;-61
2021/09/13 00:18:38;;;;;;;8.25;4.05;;;;;;;14.50;100.00;101915.44;4971543;28;20451;-61
2021/09/13 00:21:04;;;;;;;6.68;4.68;;;;;;;14.37;100.00;101915.75;4961046;28;20181;-61
2021/09/13 00:23:31;;;;;;;8.40;4.45;;;;;;;14.54;100.00;101912.34;4969391;28;20141;-61
2021/09/13 00:25:57;;;;;;;11.35;4.43;;;;;;;14.65;100.00;101913.19;4975014;28;20160;-61
2021/09/13 00:28:23;;;;;;;7.72;4.10;;;;;;;14.57;100.00;101917.38;4969891;28;20141;-61
2021/09/13 00:30:50;;;;;;;5.57;4.07;;;;;;;14.46;100.00;101912.22;4974764;28;20607;-61
2021/09/13 00:33:18;;;;;;;9.43;4.07;;;;;;;14.54;100.00;101914.97;4968978;28;20416;-61
2021/09/13 00:35:44;;;;;;;5.22;3.97;;;;;;;14.35;100.00;101910.63;4970777;28;20176;-61
2021/09/13 00:38:11;;;;;;;7.63;4.05;;;;;;;14.44;100.00;101911.56;4966954;28;20112;-61
2021/09/13 00:40:37;;;;;;;7.40;4.15;;;;;;;14.26;100.00;101905.38;4980731;28;20146;-61
2021/09/13 00:43:04;;;;;;;10.70;4.47;;;;;;;14.49;100.00;101908.50;4980330;28;20082;-61
2021/09/13 00:45:30;;;;;;;5.35;4.03;;;;;;;14.98;100.00;101909.91;4969649;28;20079;-61
2021/09/13 00:47:57;;;;;;;7.05;4.30;;;;;;;14.98;98.94;101904.63;4981555;28;20138;-61
2021/09/13 00:50:23;;;;;;;6.97;3.90;;;;;;;15.44;94.98;101896.63;4967222;28;20058;-61
2021/09/13 00:52:52;;;;;;;7.68;4.03;;;;;;;15.05;96.12;101901.41;4979118;28;20381;-61
2021/09/13 00:55:20;;;;;;;6.20;3.67;;;;;;;14.71;99.51;101907.31;4972982;28;20077;-62
2021/09/13 00:57:49;;;;;;;4.85;3.60;;;;;;;14.90;98.12;101901.09;4979050;28;20165;-60
2021/09/13 01:00:16;;;;;;;6.13;4.25;;;;;;;14.77;99.28;101907.53;4977268;28;20080;-62
2021/09/13 01:02:43;;;;;;;8.88;4.32;;;;;;;14.91;98.57;101905.38;4973858;28;20177;-61
2021/09/13 01:05:10;;;;;;;6.22;4.05;;;;;;;15.13;97.13;101899.69;4976292;28;20046;-62
2021/09/13 01:07:37;;;;;;;9.25;4.03;;;;;;;15.02;96.56;101898.06;4975969;28;20157;-62
2021/09/13 01:10:05;;;;;;;9.20;4.13;;;;;;;15.03;95.97;101898.91;4975976;28;20138;-62
2021/09/13 01:12:31;;;;;;;6.82;4.25;;;;;;;15.15;94.65;101891.59;4972495;28;20174;-61
2021/09/13 01:14:58;;;;;;;6.93;4.63;;;;;;;14.88;95.43;101890.66;4969786;28;20140;-61
2021/09/13 01:17:24;;;;;;;7.82;4.30;;;;;;;14.71;97.67;101891.47;4980788;28;20069;-62
2021/09/13 01:19:51;;;;;;;9.48;4.75;;;;;;;14.89;96.54;101889.66;4970889;28;20134;-61
2021/09/13 01:22:19;;;;;;;7.60;4.25;;;;;;;14.69;97.70;101894.25;4979189;28;20185;-62
2021/09/13 01:24:46;;;;;;;7.32;4.35;;;;;;;15.01;95.45;101898.22;4971424;28;20499;-61
2021/09/13 01:27:13;;;;;;;7.00;4.88;;;;;;;15.13;95.73;101891.75;4974442;28;20174;-62
2021/09/13 01:29:40;;;;;;;8.60;5.13;;;;;;;14.80;97.37;101891.41;4968803;28;20076;-61
2021/09/13 01:32:07;;;;;;;8.23;5.22;;;;;;;14.66;98.81;101893.69;4980965;28;20145;-62
2021/09/13 01:34:34;;;;;;;7.20;5.20;;;;;;;14.68;99.39;101897.03;4979143;28;20054;-62
2021/09/13 01:37:00;;;;;;;7.18;5.68;;;;;;;14.69;99.75;101902.16;4968499;28;20149;-62
2021/09/13 01:39:27;;;;;;;10.18;5.82;;;;;;;15.01;96.58;101903.50;4977890;28;20045;-62
2021/09/13 01:41:54;;;;;;;9.93;6.40;;;;;;;14.69;97.34;101903.97;4964124;28;20053;-61
2021/09/13 01:44:21;;;;;;;6.40;5.00;;;;;;;14.82;96.20;101896.53;4974369;28;20152;-61
2021/09/13 01:46:47;;;;;;;9.77;6.07;;;;;;;15.09;94.98;101900.13;4963751;28;20571;-61
2021/09/13 01:49:14;;;;;;;7.88;6.50;;;;;;;15.19;94.25;101895.59;4972943;28;20050;-62
2021/09/13 01:51:41;;;;;;;12.10;6.38;;;;;;;15.32;92.53;101896.03;4976201;28;20571;-62
2021/09/13 01:54:07;;;;;;;13.27;6.25;;;;;;;15.09;93.83;101900.94;4970762;28;20141;-62
2021/09/13 01:56:34;;;;;;;9.20;6.35;;;;;;;15.21;93.50;101901.53;4971858;28;20781;-61
2021/09/13 01:59:00;;;;;;;9.20;6.22;;;;;;;14.96;93.91;101895.22;4975843;28;20058;-61
2021/09/13 02:01:27;;;;;;;12.52;6.45;;;;;;;15.01;95.09;101903.50;4975819;28;20161;-62
2021/09/13 02:03:54;;;;;;;9.18;6.63;;;;;;;15.12;92.92;101900.66;4972706;28;20073;-62
2021/09/13 02:06:21;;;;;;;10.00;6.50;;;;;;;14.90;95.29;101901.09;4977526;28;20110;-62
2021/09/13 02:08:47;;;;;;;11.20;7.20;;;;;;;14.73;99.19;101905.34;4977785;28;20559;-61
2021/09/13 02:11:14;;;;;;;12.38;8.02;;;;;;;14.47;100.00;101902.53;4966049;28;20146;-62
2021/09/13 02:13:41;;;;;;;11.95;7.22;;;;;;;14.49;100.00;101898.75;4977734;28;20058;-62
2021/09/13 02:16:08;;;;;;;10.10;7.88;;;;;;;14.39;100.00;101901.44;4967967;28;20153;-62
2021/09/13 02:18:34;;;;;;;12.05;7.57;;;;;;;14.40;100.00;101904.91;4980897;28;20129;-62
2021/09/13 02:21:01;;;;;;;11.48;7.47;;;;;;;14.32;100.00;101900.34;4972158;28;20137;-61
2021/09/13 02:23:28;;;;;;;11.75;7.75;;;;;;;14.15;100.00;101895.81;4972700;28;20051;-62
2021/09/13 02:25:54;;;;;;;10.60;7.57;;;;;;;14.40;100.00;101896.97;4973064;28;20575;-61
2021/09/13 02:28:21;;;;;;;12.10;8.10;;;;;;;14.31;100.00;101901.34;4972341;28;20150;-61
2021/09/13 02:30:47;;;;;;;11.30;7.53;;;;;;;14.82;97.51;101891.25;4976121;28;21403;-62
2021/09/13 02:33:14;;;;;;;13.18;7.15;;;;;;;14.61;98.28;101900.25;4972662;28;20846;-61
2021/09/13 02:35:40;;;;;;;10.13;6.80;;;;;;;14.66;98.50;101897.16;4979558;28;20165;-61
2021/09/13 02:38:07;;;;;;;11.43;7.18;;;;;;;14.37;97.50;101892.84;4960778;28;20070;-61
2021/09/13 02:40:33;;;;;;;11.32;7.53;;;;;;;14.61;98.11;101900.25;4976716;28;20046;-62
2021/09/13 02:43:00;;;;;;;11.15;7.45;;;;;;;14.16;99.26;101884.31;4976149;28;20131;-62
2021/09/13 02:45:26;;;;;;;11.82;7.95;;;;;;;13.85;100.00;101890.59;4971334;28;20137;-62
2021/09/13 02:47:53;;;;;;;11.93;7.82;;;;;;;14.67;99.27;101888.28;4978849;28;20146;-62
2021/09/13 02:50:19;;;;;;;10.50;7.82;;;;;;;14.22;100.00;101886.34;4965148;28;20133;-62
2021/09/13 02:52:46;;;;;;;12.82;7.80;;;;;;;14.16;100.00;101879.03;4969556;28;20141;-61
2021/09/13 02:55:12;;;;;;;12.75;7.30;;;;;;;14.05;100.00;101882.66;4974551;28;20089;-61
2021/09/13 02:57:38;;;;;;;11.50;6.80;;;;;;;14.55;98.00;101884.16;4973030;28;20460;-62
2021/09/13 03:00:06;;;;;;;11.27;7.38;;;;;;;14.39;97.80;101887.41;4977473;28;20149;-62
2021/09/13 03:02:32;;;;;;;9.50;7.13;;;;;;;14.91;93.54;101882.44;4969067;28;20153;-62
2021/09/13 03:04:59;;;;;;;10.18;7.13;;;;;;;14.23;100.00;101883.59;4973279;28;20055;-61
2021/09/13 03:07:25;;;;;;;11.73;6.97;;;;;;;13.96;100.00;101878.25;4966690;28;20061;-62
2021/09/13 03:09:52;;;;;;;13.20;7.20;;;;;;;13.82;100.00;101877.72;4978993;28;20105;-62
2021/09/13 03:12:18;;;;;;;9.95;7.32;;;;;;;13.62;100.00;101876.94;4975595;28;20774;-62
2021/09/13 03:14:45;;;;;;;10.48;7.07;;;;;;;13.56;100.00;101879.28;4977331;28;20042;-61
2021/09/13 03:17:11;;;;;;;17.80;7.88;;;;;;;14.05;100.00;101874.75;4973615;28;20522;-61
2021/09/13 03:19:38;;;;;;;14.50;7.50;;;;;;;13.98;100.00;101878.94;4965609;28;20324;-61
2021/09/13 03:22:04;;;;;;;8.70;6.90;;;;;;;14.74;96.33;101870.00;4976158;28;20144;-62
2021/09/13 03:24:31;;;;;;;11.25;6.70;;;;;;;14.77;94.31;101877.66;4973138;28;20144;-62
2021/09/13 03:26:57;;;;;;;10.70;7.45;;;;;;;14.54;96.51;101883.28;4977710;28;20080;-62
2021/09/13 03:29:23;;;;;;;11.07;7.15;;;;;;;13.89;99.80;101872.69;4973534;28;20842;-61
2021/09/13 03:31:50;;;;;;;12.35;7.03;;;;;;;13.69;100.00;101871.09;4972586;28;20078;-61
2021/09/13 03:34:17;;;;;;;13.77;6.90;;;;;;;13.68;100.00;101869.41;4970275;28;20054;-62
2021/09/13 03:36:43;;;;;;;12.38;6.47;;;;;;;13.55;100.00;101865.28;4971991;28;20103;-62
2021/09/13 03:39:09;;;;;;;11.85;7.35;;;;;;;13.44;100.00;101871.50;4975976;28;20164;-62
2021/09/13 03:41:36;;;;;;;11.30;7.40;;;;;;;14.05;100.00;101882.66;4970764;28;21196;-62
2021/09/13 03:44:03;;;;;;;12.02;7.28;;;;;;;14.67;95.82;101880.34;4973966;28;20133;-62
2021/09/13 03:46:29;;;;;;;16.08;7.03;;;;;;;14.88;93.66;101873.97;4973805;28;20078;-62
2021/09/13 03:48:56;;;;;;;11.10;7.32;;;;;;;14.06;97.56;101876.41;4964583;28;20145;-62
2021/09/13 03:51:22;;;;;;;11.50;7.57;;;;;;;13.56;100.00;101866.09;4978241;28;20447;-62
2021/09/13 03:53:49;;;;;;;11.93;7.50;;;;;;;13.32;100.00;101875.25;4967011;28;20104;-62
2021/09/13 03:56:15;;;;;;;10.55;7.47;;;;;;;13.21;100.00;101876.22;4976357;28;20089;-62
2021/09/13 03:58:42;;;;;;;12.40;6.90;;;;;;;14.23;99.06;101875.66;4968123;28;20141;-61
2021/09/13 04:01:08;;;;;;;10.05;7.50;;;;;;;13.52;100.00;101876.09;4973310;28;20145;-62
2021/09/13 04:03:44;;;;;;;10.95;6.95;;;;;;;13.86;100.00;101875.63;4972284;28;20055;-61
2021/09/13 04:06:18;;;;;;;8.77;6.60;;;;;;;13.35;100.00;101876.78;4978179;28;20096;-62
2021/09/13 04:09:02;;;;;;;11.13;7.60;;;;;;;13.14;100.00;101877.72;4974326;28;20054;-62
2021/09/13 04:14:14;;;;;;;10.00;6.60;;;;;;;13.65;100.00;101870.53;4973236;28;20468;-61
2021/09/13 04:16:42;;;;;;;11.47;7.00;;;;;;;13.30;100.00;101865.84;4974777;28;20275;-61
2021/09/13 04:19:09;;;;;;;10.32;7.70;;;;;;;13.09;100.00;101868.56;4978740;28;20085;-62
2021/09/13 04:21:36;;;;;;;10.03;7.00;;;;;;;14.30;100.00;101865.34;4972621;28;20047;-62
2021/09/13 04:24:03;;;;;;;12.73;7.10;;;;;;;14.40;100.00;101863.50;4976451;28;20050;-62
2021/09/13 04:26:29;;;;;;;8.52;6.72;;;;;;;14.62;99.77;101864.09;4977628;28;20150;-62
2021/09/13 04:28:56;;;;;;;8.13;5.90;;;;;;;13.92;100.00;101866.31;4968047;28;20585;-61
2021/09/13 04:31:23;;;;;;;10.55;6.75;;;;;;;13.49;100.00;101878.19;4979810;28;20513;-62
2021/09/13 04:33:51;;;;;;;10.13;6.32;;;;;;;13.28;100.00;101880.94;4971965;28;20050;-62
2021/09/13 04:36:17;;;;;;;8.35;6.38;;;;;;;13.80;100.00;101869.13;4981306;28;20137;-62
2021/09/13 04:38:44;;;;;;;8.32;6.28;;;;;;;13.61;100.00;101869.16;4971526;28;20050;-62
2021/09/13 04:41:10;;;;;;;9.35;6.05;;;;;;;13.35;100.00;101871.50;4976278;28;20053;-61
2021/09/13 04:43:38;;;;;;;8.48;6.65;;;;;;;13.22;100.00;101875.22;4973085;28;20150;-62
2021/09/13 04:46:04;;;;;;;11.15;6.30;;;;;;;13.14;100.00;101875.09;4970341;28;20090;-62
2021/09/13 04:48:31;;;;;;;9.02;6.00;;;;;;;13.11;100.00;101875.34;4976904;28;20530;-62
2021/09/13 04:50:57;;;;;;;11.25;7.05;;;;;;;13.01;100.00;101872.69;4970239;28;20149;-62
2021/09/13 04:53:24;;;;;;;15.88;7.72;;;;;;;13.72;100.00;101874.28;4976571;28;20162;-61
2021/09/13 04:55:51;;;;;;;8.55;6.15;;;;;;;13.15;100.00;101870.63;4969110;28;20140;-61
2021/09/13 04:58:17;;;;;;;7.50;5.80;;;;;;;13.09;100.00;101872.03;4976822;28;20145;-61
2021/09/13 05:00:44;;;;;;;9.25;6.78;;;;;;;13.52;100.00;101872.63;4975216;28;20133;-62
2021/09/13 05:03:10;;;;;;;8.13;6.15;;;;;;;14.47;100.00;101878.78;4972488;28;20462;-62
2021/09/13 05:05:37;;;;;;;11.73;6.88;;;;;;;14.65;97.27;101881.50;4980352;28;20050;-62
2021/09/13 05:08:04;;;;;;;7.72;6.10;;;;;;;14.95;94.18;101882.97;4970852;28;20058;-62
2021/09/13 05:10:30;;;;;;;8.05;5.85;;;;;;;15.01;93.28;101887.66;4977698;28;20048;-61
2021/09/13 05:12:56;;;;;;;8.82;6.03;;;;;;;15.21;91.38;101883.03;4975584;28;20547;-61
2021/09/13 05:15:23;;;;;;;8.73;5.63;;;;;;;15.29;90.55;101892.88;4977641;28;21720;-61
2021/09/13 05:17:50;;;;;;;8.80;5.72;;;;;;;14.37;94.60;101892.00;4983831;28;20165;-61
2021/09/13 05:20:17;;;;;;;7.25;5.50;;;;;;;13.72;100.00;101889.25;4963447;28;20546;-61
2021/09/13 05:22:44;;;;;;;8.30;6.18;;;;;;;13.44;100.00;101897.84;4976670;28;20155;-61
2021/09/13 05:25:10;;;;;;;9.40;6.95;;;;;;;13.23;100.00;101903.25;4970566;28;20133;-61
2021/09/13 05:27:37;;;;;;;10.35;6.68;;;;;;;13.15;100.00;101895.22;4977318;28;20072;-62
2021/09/13 05:30:04;;;;;;;13.85;7.00;;;;;;;13.04;100.00;101895.31;4970743;28;20093;-61
2021/09/13 05:32:31;;;;;;;10.68;6.32;;;;;;;13.03;100.00;101896.28;4974705;28;20117;-61
2021/09/13 05:34:57;;;;;;;7.68;6.10;;;;;;;12.98;100.00;101901.13;4972081;28;20772;-61
2021/09/13 05:37:24;;;;;;;8.57;5.85;;;;;;;13.24;100.00;101893.53;4972041;28;20185;-61
2021/09/13 05:39:50;;;;;;;10.20;6.13;;;;;;;13.06;100.00;101904.75;4975773;28;20165;-62
2021/09/13 05:42:17;;;;;;;10.02;7.43;;;;;;;13.06;100.00;101909.19;4972649;28;20142;-61
2021/09/13 05:44:43;;;;;;;20.10;13.90;;;;;;;13.13;100.00;101905.06;4977858;28;20050;-62
2021/09/13 05:47:10;;;;;;;21.02;13.35;;;;;;;13.09;100.00;101903.63;4970114;28;20077;-61
2021/09/13 05:49:36;;;;;;;11.85;8.43;;;;;;;13.56;100.00;101910.91;4974082;28;20571;-61
2021/09/13 05:52:03;;;;;;;11.20;7.95;;;;;;;14.16;100.00;101898.31;4976191;28;20144;-60
2021/09/13 05:54:29;;;;;;;42.92;24.83;;;;;;;14.89;98.91;101907.34;4972254;28;20577;-62
2021/09/13 05:56:56;;;;;;;22.70;13.75;;;;;;;14.99;96.70;101914.25;4975954;28;20065;-61
2021/09/13 05:59:24;;;;;;;19.25;11.40;;;;;;;15.01;95.52;101917.56;4966086;28;20684;-61
2021/09/13 06:01:50;;;;;;;17.07;9.90;;;;;;;14.98;96.14;101914.38;4977672;28;20554;-61
2021/09/13 06:04:17;;;;;;;14.00;9.15;;;;;;;15.44;92.68;101917.78;4972202;28;20287;-61
2021/09/13 06:06:44;;;;;;;10.70;6.75;;;;;;;15.52;92.04;101909.94;4975532;28;20145;-61
2021/09/13 06:09:11;;;;;;;9.13;5.97;;;;;;;15.30;93.29;101918.34;4976332;28;20149;-61
2021/09/13 06:11:38;;;;;;;13.05;6.97;;;;;;;14.93;95.13;101912.16;4969473;28;20180;-62
2021/09/13 06:14:05;;;;;;;9.52;6.25;;;;;;;14.40;100.00;101910.19;4973415;28;20819;-62
2021/09/13 06:16:31;;;;;;;12.00;5.78;;;;;;;13.95;100.00;101914.31;4970086;28;20162;-62
2021/09/13 06:18:58;;;;;;;10.75;6.43;;;;;;;13.84;100.00;101912.69;4977898;28;20057;-62
2021/09/13 06:21:25;;;;;;;9.93;6.05;;;;;;;14.03;100.00;101910.97;4971450;28;20053;-61
2021/09/13 06:23:52;;;;;;;8.38;6.05;;;;;;;14.55;100.00;101910.56;4979871;28;20145;-62
2021/09/13 06:26:19;;;;;;;10.80;6.93;;;;;;;14.65;100.00;101915.81;4965947;28;20069;-61
2021/09/13 06:28:45;;;;;;;10.60;6.53;;;;;;;14.44;100.00;101912.41;4974691;28;20060;-62
2021/09/13 06:31:12;;;;;;;14.05;7.63;;;;;;;13.96;100.00;101918.66;4972264;28;20133;-62
2021/09/13 06:33:39;;;;;;;10.10;7.38;;;;;;;14.20;100.00;101920.81;4971568;28;20154;-61
2021/09/13 06:36:05;;;;;;;14.13;7.75;;;;;;;13.86;100.00;101923.13;4974310;28;20081;-61
2021/09/13 06:38:32;;;;;;;12.25;7.18;;;;;;;13.75;100.00;101924.06;4971316;28;20153;-61
2021/09/13 06:40:59;;;;;;;12.30;6.57;;;;;;;14.44;100.00;101925.59;4967711;28;20065;-61
2021/09/13 06:43:29;;;;;;;12.73;7.75;;;;;;;13.92;100.00;101934.91;4974148;28;20132;-62
2021/09/13 06:46:45;;;;;;;10.30;7.00;;;;;;;13.84;100.00;101940.88;4974093;28;20141;-62
2021/09/13 06:48:46;;;;;;;13.57;8.05;;;;;;;13.77;100.00;101930.03;4971768;28;20525;-61
2021/09/13 06:51:12;;;;;;;16.13;8.13;;;;;;;14.20;100.00;101931.34;4969201;28;20141;-61
2021/09/13 06:53:39;;;;;;;12.77;7.35;;;;;;;15.51;100.00;101929.44;4974657;28;20141;-61
2021/09/13 06:56:06;;;;;;;13.52;8.18;;;;;;;14.52;100.00;101930.13;4966352;28;20133;-61
2021/09/13 06:58:34;;;;;;;13.13;7.57;;;;;;;14.16;100.00;101926.53;4976552;28;20629;-62
2021/09/13 07:01:01;;;;;;;11.35;7.72;;;;;;;14.34;100.00;101924.78;4969678;28;20577;-61
2021/09/13 07:03:28;;;;;;;14.05;7.85;;;;;;;14.22;100.00;101913.56;4976046;28;20065;-62
2021/09/13 07:05:55;;;;;;;13.05;8.15;;;;;;;14.33;100.00;101920.50;4976602;28;20818;-61
2021/09/13 07:08:21;;;;;;;12.98;7.63;;;;;;;15.18;100.00;101931.75;4964245;28;20136;-62
2021/09/13 07:10:49;;;;;;;14.07;8.35;;;;;;;16.02;100.00;101937.63;4971910;28;20148;-61
2021/09/13 07:13:15;;;;;;;14.10;7.95;;;;;;;16.36;100.00;101936.84;4968167;28;20136;-61
2021/09/13 07:15:42;;;;;;;14.68;7.65;;;;;;;16.40;100.00;101944.31;4975516;28;20430;-61
2021/09/13 07:18:08;;;;;;;14.35;8.00;;;;;;;16.34;100.00;101946.75;4969376;28;20058;-62
2021/09/13 07:20:35;;;;;;;17.05;8.85;;;;;;;16.11;100.00;101946.44;4973532;28;20078;-61
2021/09/13 07:23:01;;;;;;;19.83;8.88;;;;;;;16.27;100.00;101951.00;4974669;28;20074;-62
2021/09/13 07:25:28;;;;;;;13.05;7.57;;;;;;;16.70;100.00;101954.53;4970506;28;20069;-61
2021/09/13 07:27:54;;;;;;;15.63;7.05;;;;;;;16.98;95.60;101963.16;4973129;28;20058;-61
2021/09/13 07:30:22;;;;;;;12.57;8.50;;;;;;;17.22;94.63;101953.59;4968915;28;20062;-61
2021/09/13 07:32:49;;;;;;;20.08;8.43;;;;;;;17.35;93.13;101953.97;4967400;28;20054;-61
2021/09/13 07:35:15;;;;;;;16.05;9.05;;;;;;;17.42;94.37;101952.28;4973070;28;20163;-62
2021/09/13 07:37:42;;;;;;;12.88;7.85;;;;;;;17.55;93.01;101950.00;4975982;28;20141;-62
2021/09/13 07:40:10;;;;;;;14.32;7.10;;;;;;;17.64;92.21;101945.53;4977033;28;20096;-62
2021/09/13 07:42:37;;;;;;;15.37;8.50;;;;;;;17.74;91.88;101948.84;4969950;28;20157;-62
2021/09/13 07:45:04;;;;;;;17.15;8.02;;;;;;;17.87;92.05;101945.69;4971575;28;20325;-63
2021/09/13 07:47:31;;;;;;;17.00;8.85;;;;;;;17.65;94.93;101955.13;4969404;28;20077;-62
2021/09/13 07:49:59;;;;;;;13.23;7.78;;;;;;;17.67;92.89;101963.75;4977686;28;20444;-62
2021/09/13 07:52:26;;;;;;;18.50;8.57;;;;;;;17.52;95.59;101954.78;4972669;28;20053;-62
2021/09/13 07:54:53;;;;;;;24.40;8.13;;;;;;;17.63;94.76;101951.81;4977572;28;20161;-62
2021/09/13 07:57:19;;;;;;;20.02;9.20;;;;;;;17.69;95.35;101947.69;4977233;28;20172;-62
2021/09/13 07:59:46;;;;;;;15.07;7.90;;;;;;;17.78;95.16;101954.66;4968498;28;20611;-62
2021/09/13 08:02:13;;;;;;;18.52;8.00;;;;;;;17.78;94.90;101957.31;4972804;28;20074;-62
2021/09/13 08:04:40;;;;;;;12.95;6.82;;;;;;;17.96;93.93;101959.81;4974415;28;20064;-62
2021/09/13 08:07:07;;;;;;;12.05;6.30;;;;;;;18.11;93.39;101952.81;4979206;28;20079;-61
2021/09/13 08:09:34;;;;;;;16.67;6.32;;;;;;;18.22;91.57;101967.56;4975632;28;20165;-62
2021/09/13 08:12:00;;;;;;;14.00;6.65;;;;;;;17.86;93.33;101975.09;4978198;28;20106;-61
2021/09/13 08:14:27;;;;;;;13.52;6.07;;;;;;;17.00;100.00;101972.59;4972145;28;20073;-62
2021/09/13 08:16:53;;;;;;;13.65;5.43;;;;;;;16.68;100.00;101969.78;4973657;28;20510;-62
2021/09/13 08:19:20;;;;;;;11.40;4.78;;;;;;;16.57;100.00;101970.91;4980155;28;20162;-62
2021/09/13 08:21:46;;;;;;;14.30;5.57;;;;;;;16.57;100.00;101979.66;4974531;28;20567;-62
2021/09/13 08:24:13;;;;;;;10.65;5.13;;;;;;;16.59;100.00;101987.47;4972311;28;20145;-62
2021/09/13 08:26:40;;;;;;;11.57;5.38;;;;;;;16.61;100.00;101993.44;4965727;28;20053;-61
2021/09/13 08:29:06;;;;;;;16.42;6.25;;;;;;;16.65;100.00;101996.59;4969023;28;20471;-62
2021/09/13 08:31:33;;;;;;;14.70;6.43;;;;;;;16.71;100.00;101991.47;4977647;28;20601;-62
2021/09/13 08:33:59;;;;;;;18.88;6.50;;;;;;;16.76;100.00;101994.50;4967582;28;20426;-62
2021/09/13 08:36:26;;;;;;;15.48;7.60;;;;;;;16.99;100.00;102001.91;4977626;28;20105;-62
2021/09/13 08:38:52;;;;;;;12.77;6.95;;;;;;;16.91;100.00;102002.69;4967394;28;20502;-61
2021/09/13 08:41:19;;;;;;;13.50;7.20;;;;;;;16.91;100.00;102007.16;4970337;28;20054;-62
2021/09/13 08:43:46;;;;;;;11.95;5.28;;;;;;;16.99;100.00;102008.06;4963366;28;20138;-62
2021/09/13 08:46:20;;;;;;;11.83;6.10;;;;;;;17.08;100.00;102013.38;4975834;28;20797;-62
2021/09/13 08:48:55;;;;;;;14.43;5.25;;;;;;;17.22;100.00;102017.22;4974120;28;20363;-61
2021/09/13 08:51:30;;;;;;;13.98;4.25;;;;;;;17.41;100.00;102008.19;4968168;28;20052;-60
2021/09/13 08:54:02;;;;;;;7.80;4.18;;;;;;;17.63;100.00;102009.38;4974182;28;20060;-62
2021/09/13 08:56:52;;;;;;;9.30;4.05;;;;;;;17.59;100.00;102003.56;4963553;28;20141;-62
2021/09/13 08:59:16;;;;;;;11.10;4.30;;;;;;;18.98;96.29;102007.06;4974805;28;20583;-62
2021/09/13 09:01:44;;;;;;;13.30;4.75;;;;;;;19.42;91.08;102003.81;4974845;28;20058;-63
2021/09/13 09:04:11;;;;;;;10.73;4.75;;;;;;;19.00;92.99;102007.72;4976061;28;20635;-62
2021/09/13 09:06:43;;;;;;;15.73;4.95;;;;;;;18.58;96.83;102002.53;4953391;28;20083;-62
2021/09/13 09:09:15;;;;;;;10.32;4.57;;;;;;;18.40;99.68;102009.03;4972288;28;20062;-62
2021/09/13 09:12:01;;;;;;;8.73;4.38;;;;;;;18.49;98.05;102005.38;4975964;28;20054;-62
2021/09/13 09:14:31;;;;;;;7.30;3.70;;;;;;;19.28;93.48;102000.09;4970790;28;20050;-61
2021/09/13 09:17:01;;;;;;;7.45;3.33;;;;;;;18.99;91.44;102003.38;4978440;28;20350;-61
2021/09/13 09:19:28;;;;;;;7.05;3.67;;;;;;;18.68;93.25;102006.78;4968842;28;20539;-61
2021/09/13 09:21:55;;;;;;;6.30;3.25;;;;;;;18.62;93.52;102003.00;4982234;28;20082;-63
2021/09/13 09:24:22;;;;;;;7.97;3.28;;;;;;;18.61;95.78;102003.19;4964007;28;20081;-61
2021/09/13 09:27:03;;;;;;;10.57;3.45;;;;;;;18.61;96.32;102006.66;4975932;28;20046;-62
2021/09/13 09:29:33;;;;;;;12.80;3.83;;;;;;;18.78;93.73;102004.78;4971165;28;20046;-62
2021/09/13 09:32:01;;;;;;;7.55;3.47;;;;;;;18.87;92.26;102008.25;4979569;28;20108;-61
2021/09/13 09:34:33;;;;;;;6.20;2.80;;;;;;;19.35;90.72;102011.69;4977337;28;20538;-63
2021/09/13 09:37:00;;;;;;;8.57;3.75;;;;;;;19.48;89.17;102011.94;4969234;28;20526;-62
2021/09/13 09:39:30;;;;;;;6.75;3.60;;;;;;;19.91;85.85;102008.81;4974459;28;20145;-62
2021/09/13 09:41:57;;;;;;;9.60;3.60;;;;;;;19.65;87.59;102007.31;4970463;28;20772;-62
2021/09/13 09:44:24;;;;;;;4.88;2.67;;;;;;;19.98;81.35;102006.28;4977643;28;20142;-62
2021/09/13 09:46:53;;;;;;;5.13;2.45;;;;;;;19.91;83.96;102006.16;4971530;28;20662;-62
2021/09/13 09:49:22;;;;;;;8.93;2.47;;;;;;;19.81;85.67;102005.56;4976751;28;20058;-61
2021/09/13 09:51:54;;;;;;;6.60;2.35;;;;;;;19.32;89.28;102006.72;4973137;28;20054;-62
2021/09/13 09:54:24;;;;;;;7.82;2.75;;;;;;;19.36;90.17;102006.16;4972676;28;20570;-62
2021/09/13 09:57:20;;;;;;;8.30;3.55;;;;;;;20.79;82.32;102001.13;4976164;28;20113;-62
2021/09/13 09:59:47;;;;;;;8.23;3.80;;;;;;;20.87;81.59;101998.34;4957923;28;20810;-62
2021/09/13 10:02:18;;;;;;;9.10;4.00;;;;;;;21.27;79.31;101994.31;4977687;28;20834;-62
2021/09/13 10:04:47;;;;;;;9.38;4.93;;;;;;;19.99;85.58;101998.09;4966347;28;20069;-61
2021/09/13 10:07:14;;;;;;;;;;;;;;;19.69;88.29;101997.97;4973490;28;20058;-61
2021/09/13 10:09:42;;;;;;;5.97;3.90;;;;;;;19.53;88.26;102003.41;4969271;28;19973;-62
2021/09/13 10:12:09;;;;;;;7.70;4.63;;;;;;;19.44;91.26;101999.97;4975632;28;20490;-63
2021/09/13 10:14:37;;;;;;;8.60;4.17;;;;;;;19.42;92.66;101993.19;4977171;28;20130;-63
2021/09/13 10:17:07;;;;;;;7.97;4.57;;;;;;;19.46;92.84;101997.97;4974858;28;20381;-63
2021/09/13 10:19:47;;;;;;;7.80;4.45;;;;;;;19.52;92.56;101991.09;4972986;28;20555;-62
2021/09/13 10:22:14;;;;;;;8.68;4.25;;;;;;;19.63;89.30;101988.03;4965746;28;20133;-64
2021/09/13 10:24:45;;;;;;;6.95;3.88;;;;;;;19.88;88.53;101980.72;4976358;28;20210;-64
2021/09/13 10:27:15;;;;;;;8.77;3.42;;;;;;;19.81;88.93;101981.63;4970608;28;20062;-64
2021/09/13 10:29:43;;;;;;;4.63;2.65;;;;;;;21.16;81.31;101976.13;4975525;28;20161;-64
2021/09/13 10:32:11;;;;;;;5.63;2.45;;;;;;;20.73;82.11;101978.69;4966335;28;20125;-64
2021/09/13 10:34:40;;;;;;;;;;;;;;;21.91;73.58;101979.31;4970100;28;20251;-64
2021/09/13 10:37:14;;;;;;;6.07;2.75;;;;;;;21.36;77.27;101976.31;4973048;28;19925;-63
2021/09/13 10:39:54;;;;;;;7.93;2.83;;;;;;;20.99;78.92;101980.03;4968580;28;20949;-64
2021/09/13 10:42:36;;;;;;;6.22;2.80;;;;;;;20.60;80.28;101978.50;4974698;28;20054;-63
2021/09/13 10:45:27;;;;;;;9.27;4.43;;;;;;;20.76;80.64;101965.00;4972200;28;20137;-64
2021/09/13 10:47:59;;;;;;;7.70;3.33;;;;;;;20.83;80.91;101965.06;4969509;28;20177;-64
2021/09/13 10:50:32;;;;;;;5.05;2.75;;;;;;;21.27;77.92;101969.47;4968513;28;20169;-64
2021/09/13 10:53:00;;;;;;;6.45;2.65;;;;;;;21.29;79.63;101965.59;4975092;28;20054;-63
2021/09/13 10:55:31;;;;;;;4.40;2.33;;;;;;;21.09;79.15;101967.22;4970822;28;20054;-64
2021/09/13 10:58:14;;;;;;;6.97;2.20;;;;;;;22.09;71.59;101963.63;4977221;28;20137;-64
2021/09/13 11:00:40;;;;;;;4.50;2.08;;;;;;;22.15;71.59;101962.03;4966139;28;20110;-64
2021/09/13 11:03:22;;;;;;;8.32;2.45;;;;;;;22.47;70.38;101965.94;4970120;28;20050;-64
2021/09/13 11:06:17;;;;;;;2.92;2.00;;;;;;;22.32;71.16;101962.56;4975883;28;20054;-64
2021/09/13 11:08:48;;;;;;;4.50;2.28;;;;;;;22.92;71.87;101962.03;4975908;28;20791;-64
2021/09/13 11:11:17;;;;;;;6.38;1.85;;;;;;;22.96;64.70;101955.25;4974619;28;20058;-64
2021/09/13 11:13:45;;;;;;;6.57;2.05;;;;;;;23.05;67.75;101951.38;4965467;28;20500;-64
2021/09/13 11:16:18;;;;;;;5.28;1.95;;;;;;;23.05;64.64;101954.91;4969860;28;20067;-64
2021/09/13 11:18:47;;;;;;;3.50;1.33;;;;;;;23.32;66.01;101954.13;4971062;28;20054;-64
2021/09/13 11:21:22;;;;;;;3.13;1.45;;;;;;;22.90;68.28;101946.16;4971259;28;20149;-64
2021/09/13 11:23:50;;;;;;;3.17;1.50;;;;;;;22.82;67.10;101947.19;4971184;28;20050;-64